Terminal Aerodrome Forecast
Issued by NWS Cleveland, OH

Home | Current Version | Previous Version | Graphics & Text | Print | Product List | Glossary Off
Versions: 1 2 3 4 5 6 7 8 9 10 11 12

000
FTUS41 KCLE 281728
TAFMFD
TAF
KMFD 281728Z 2818/2918 16004KT P6SM SCT060 OVC150
     FM281900 18005KT P6SM VCSH BKN040 BKN150
     FM290000 VRB04KT P6SM BKN150
     FM290800 VRB02KT 3SM BR BKN150
     FM291400 34003KT P6SM BKN150=

USA.gov is the U.S. government's official web portal to all federal, state and local government web resources and services.